Pickerington, Ohio
Current Conditions -  °F | °C
As of 3:53 PM on Thursday 18 Dec 2014 (Local Time) from KLHQ Reporting Station
Overcast Overcast  
Wind Chill: 23°   Ceiling: 1900
Heat Index: 28°   Visibility: 9mi
Dew Point: 21°   Wind: 5mph
Humidity: 75%   Direction: 280°W
Pressure: 30.21"   Gusts: NA
Location:  39.88°N, 82.75°W
Report Text: KLHQ 182053Z AUTO 28004KT 9SM OVC019 M02/M06 A3021 RMK AO2 SLP239 T10221061 56005
Loading
Personal Weather Stations






























Interactive Weather Map New forecast layout! Learn more

10-Day Weather Forecast

Advertisements
Track Severe Weather on mobile